Сообщение об ошибке

  • Warning: ini_set(): Headers already sent. You cannot change the session module's ini settings at this time in drupal_environment_initialize() (line 699 of /home/a/auditpro/2.auditpro.beget.tech/public_html/st/includes/bootstrap.inc).
  • Warning: ini_set(): Headers already sent. You cannot change the session module's ini settings at this time in drupal_environment_initialize() (line 700 of /home/a/auditpro/2.auditpro.beget.tech/public_html/st/includes/bootstrap.inc).
  • Warning: ini_set(): Headers already sent. You cannot change the session module's ini settings at this time in drupal_environment_initialize() (line 701 of /home/a/auditpro/2.auditpro.beget.tech/public_html/st/includes/bootstrap.inc).
  • Warning: ini_set(): Headers already sent. You cannot change the session module's ini settings at this time in drupal_environment_initialize() (line 704 of /home/a/auditpro/2.auditpro.beget.tech/public_html/st/includes/bootstrap.inc).
  • Warning: ini_set(): Headers already sent. You cannot change the session module's ini settings at this time in drupal_environment_initialize() (line 706 of /home/a/auditpro/2.auditpro.beget.tech/public_html/st/includes/bootstrap.inc).
  • Warning: ini_set(): Headers already sent. You cannot change the session module's ini settings at this time in include_once() (line 290 of /home/a/auditpro/2.auditpro.beget.tech/public_html/st/sites/default/settings.php).
  • Warning: ini_set(): Headers already sent. You cannot change the session module's ini settings at this time in include_once() (line 291 of /home/a/auditpro/2.auditpro.beget.tech/public_html/st/sites/default/settings.php).
  • Warning: ini_set(): Headers already sent. You cannot change the session module's ini settings at this time in include_once() (line 299 of /home/a/auditpro/2.auditpro.beget.tech/public_html/st/sites/default/settings.php).
  • Warning: ini_set(): Headers already sent. You cannot change the session module's ini settings at this time in include_once() (line 306 of /home/a/auditpro/2.auditpro.beget.tech/public_html/st/sites/default/settings.php).
  • Warning: ini_set(): Headers already sent. You cannot change the session module's ini settings at this time in drupal_settings_initialize() (line 826 of /home/a/auditpro/2.auditpro.beget.tech/public_html/st/includes/bootstrap.inc).
  • Warning: ini_set(): Headers already sent. You cannot change the session module's ini settings at this time in drupal_settings_initialize() (line 835 of /home/a/auditpro/2.auditpro.beget.tech/public_html/st/includes/bootstrap.inc).
  • Warning: session_name(): Cannot change session name when headers already sent in drupal_settings_initialize() (line 838 of /home/a/auditpro/2.auditpro.beget.tech/public_html/st/includes/bootstrap.inc).

Коренево

СКИДКИ НА СМАРТФОНЫ!

Карта отелей и гостиниц, располагающихся рядом с аэропортом Коренево :

Коренево Курская область 51° 25' 50.5812" N, 34° 53' 30.5988" E
Код аэродрома ИКАО
HA2I
Код аэродрома RU
ХА2И
Координаты
N51.43072° E034.89183°
Превышение над уровнем моря
183
Основная полоса
Курс магнитный
Длина основной ВПП
Ширина основной ВПП
Покрытие основной ВПП
Нетвёрдое (грунт)
Освещение ВПП
Нет
Тип: 
Вертодром
Класс аэродрома: 
Принадлежность: 
ГА
Статус: 
Недействующий
Сайт: 
E-mail аэродрома: 
Страна: 
Россия
Регион: 
Курская область
Город: 
Дополнительная информация: 

Скидки на навигаторы!

Найти трансфер

С помощью этой формы Вы можете найти трансфер из аэропорта Коренево в город, аэропорт или вокзал:

Погода в аэропортах:

Авиационная погода в Москве - Остафьево

Погода METAR: 
UUMO 301930Z 21006MPS 6000 -SN OVC019 M01/M04 Q0996 R25/520148 NOSIG RMK QFE732/0976
Время наблюдения
2023-01-30T19:30:00Z
Температура C
-1.0
Точка росы
-4.0
Направление ветра
210
Скорость ветра (узлы)
12
Метео видимость
3.73
Облачность
OVC
Нижняя граница облачности (футы)
1900
Явления погоды
-SN
Условия полета
MVFR
Аэропорт подробнее: 
OVC – сплошная облачность;
-SN – слабый снег;

Авиационная погода в Витебске

Регион: 
Погода METAR: 
UMII 301021Z 20009G13MPS 4400 -SN BLSN OVC009 M01/M02 Q0995 TEMPO 2000 SN BKN005
Время наблюдения
2023-01-30T10:21:00Z
Температура C
-1.0
Точка росы
-2.0
Направление ветра
200
Скорость ветра (узлы)
17
Метео видимость
2.73
Облачность
OVC
Нижняя граница облачности (футы)
900
Явления погоды
-SN BLSN
Условия полета
IFR
OVC – сплошная облачность;
-SN – слабый снег, BLSN – метель низовая или общая;

Авиационная погода в Грозном

Регион: 
Погода METAR: 
URMG 301930Z 03001MPS 4500 BR NSC 00/M01 Q1014 R08/090070 TEMPO 0300 FZFG OVC002 RMK QFE746/0995
Время наблюдения
2023-01-30T19:30:00Z
Температура C
0.0
Точка росы
-1.0
Направление ветра
30
Скорость ветра (узлы)
2
Метео видимость
2.8
Облачность
CLR
Нижняя граница облачности (футы)
Явления погоды
BR
Условия полета
IFR
Аэропорт подробнее: 
CLR — нет облаков ниже 3000 м
BR – дымка (видимость от 1 до 9 км);

Авиационная погода в Самсуне

Регион: 
Погода METAR: 
LTFH 301950Z 00000KT 9999 -SHRA FEW019 BKN028 BKN080 05/05 Q1012 NOSIG
Время наблюдения
2023-01-30T19:50:00Z
Температура C
5.0
Точка росы
5.0
Направление ветра
0
Скорость ветра (узлы)
0
Метео видимость
6.21
Облачность
FEW
BKN
BKN
Нижняя граница облачности (футы)
1900
2800
8000
Явления погоды
-SHRA
Условия полета
MVFR
FEW – незначительная облачность; BKN – значительная (рассеянная, разорванная) облачность;
-SHRA - слабый ливневой дождь;